sensor_id;sensor_type;location;lat;lon;timestamp;P1;durP1;ratioP1;P2;durP2;ratioP2
9974;SDS011;5028;50.974;4.968;2022-08-01T00:01:05;3.80;;;1.37;;
9974;SDS011;5028;50.974;4.968;2022-08-01T00:03:35;4.40;;;1.70;;
9974;SDS011;5028;50.974;4.968;2022-08-01T00:06:09;2.43;;;1.50;;
9974;SDS011;5028;50.974;4.968;2022-08-01T00:08:38;2.70;;;1.60;;
9974;SDS011;5028;50.974;4.968;2022-08-01T00:11:13;1.67;;;1.30;;
9974;SDS011;5028;50.974;4.968;2022-08-01T00:13:42;2.47;;;1.50;;
9974;SDS011;5028;50.974;4.968;2022-08-01T00:16:16;3.83;;;1.70;;
9974;SDS011;5028;50.974;4.968;2022-08-01T00:18:46;2.90;;;1.60;;
9974;SDS011;5028;50.974;4.968;2022-08-01T00:21:22;1.80;;;1.50;;
9974;SDS011;5028;50.974;4.968;2022-08-01T00:23:50;3.93;;;1.60;;
9974;SDS011;5028;50.974;4.968;2022-08-01T00:26:26;3.50;;;1.63;;
9974;SDS011;5028;50.974;4.968;2022-08-01T00:28:54;1.63;;;1.50;;
9974;SDS011;5028;50.974;4.968;2022-08-01T00:31:55;2.37;;;1.40;;
9974;SDS011;5028;50.974;4.968;2022-08-01T00:34:26;4.00;;;1.80;;
9974;SDS011;5028;50.974;4.968;2022-08-01T00:37:00;4.43;;;1.97;;
9974;SDS011;5028;50.974;4.968;2022-08-01T00:39:29;3.50;;;1.60;;
9974;SDS011;5028;50.974;4.968;2022-08-01T00:42:05;3.80;;;1.73;;
9974;SDS011;5028;50.974;4.968;2022-08-01T00:44:34;4.30;;;1.70;;
9974;SDS011;5028;50.974;4.968;2022-08-01T00:47:10;2.87;;;1.63;;
9974;SDS011;5028;50.974;4.968;2022-08-01T00:49:40;2.67;;;1.87;;
9974;SDS011;5028;50.974;4.968;2022-08-01T00:52:15;4.97;;;1.90;;
9974;SDS011;5028;50.974;4.968;2022-08-01T00:54:43;4.70;;;1.80;;
9974;SDS011;5028;50.974;4.968;2022-08-01T00:57:18;3.40;;;2.07;;
9974;SDS011;5028;50.974;4.968;2022-08-01T01:00:08;4.43;;;2.00;;
9974;SDS011;5028;50.974;4.968;2022-08-01T01:02:52;6.67;;;2.30;;
9974;SDS011;5028;50.974;4.968;2022-08-01T01:05:22;4.10;;;2.20;;
9974;SDS011;5028;50.974;4.968;2022-08-01T01:08:02;3.50;;;2.50;;
9974;SDS011;5028;50.974;4.968;2022-08-01T01:10:37;4.00;;;2.50;;
9974;SDS011;5028;50.974;4.968;2022-08-01T01:13:18;4.00;;;2.27;;
9974;SDS011;5028;50.974;4.968;2022-08-01T01:15:54;3.27;;;2.33;;
9974;SDS011;5028;50.974;4.968;2022-08-01T01:18:34;6.87;;;2.60;;
9974;SDS011;5028;50.974;4.968;2022-08-01T01:24:16;4.40;;;2.40;;
9974;SDS011;5028;50.974;4.968;2022-08-01T01:26:57;4.53;;;2.40;;
9974;SDS011;5028;50.974;4.968;2022-08-01T01:29:50;3.73;;;2.50;;
9974;SDS011;5028;50.974;4.968;2022-08-01T01:32:28;3.87;;;2.40;;
9974;SDS011;5028;50.974;4.968;2022-08-01T01:35:07;3.53;;;2.57;;
9974;SDS011;5028;50.974;4.968;2022-08-01T01:37:39;5.27;;;2.50;;
9974;SDS011;5028;50.974;4.968;2022-08-01T01:40:17;4.83;;;2.57;;
9974;SDS011;5028;50.974;4.968;2022-08-01T01:42:47;5.00;;;2.50;;
9974;SDS011;5028;50.974;4.968;2022-08-01T01:45:25;4.10;;;2.40;;
9974;SDS011;5028;50.974;4.968;2022-08-01T01:47:55;4.50;;;2.83;;
9974;SDS011;5028;50.974;4.968;2022-08-01T01:50:33;4.67;;;2.47;;
9974;SDS011;5028;50.974;4.968;2022-08-01T01:53:03;4.40;;;2.83;;
9974;SDS011;5028;50.974;4.968;2022-08-01T01:55:40;5.57;;;2.73;;
9974;SDS011;5028;50.974;4.968;2022-08-01T01:58:15;5.63;;;2.73;;
9974;SDS011;5028;50.974;4.968;2022-08-01T02:00:54;4.70;;;2.53;;
9974;SDS011;5028;50.974;4.968;2022-08-01T02:03:28;3.70;;;2.60;;
9974;SDS011;5028;50.974;4.968;2022-08-01T02:06:05;6.13;;;2.67;;
9974;SDS011;5028;50.974;4.968;2022-08-01T02:08:34;4.70;;;3.10;;
9974;SDS011;5028;50.974;4.968;2022-08-01T02:11:11;3.60;;;2.43;;
9974;SDS011;5028;50.974;4.968;2022-08-01T02:13:46;4.30;;;2.90;;
9974;SDS011;5028;50.974;4.968;2022-08-01T02:16:28;5.00;;;2.80;;
9974;SDS011;5028;50.974;4.968;2022-08-01T02:18:57;3.07;;;2.53;;
9974;SDS011;5028;50.974;4.968;2022-08-01T02:21:35;5.07;;;2.80;;
9974;SDS011;5028;50.974;4.968;2022-08-01T02:24:10;5.77;;;3.30;;
9974;SDS011;5028;50.974;4.968;2022-08-01T02:26:56;4.57;;;2.90;;
9974;SDS011;5028;50.974;4.968;2022-08-01T02:29:42;3.97;;;2.83;;
9974;SDS011;5028;50.974;4.968;2022-08-01T02:32:31;6.00;;;3.00;;
9974;SDS011;5028;50.974;4.968;2022-08-01T02:35:04;4.13;;;2.70;;
9974;SDS011;5028;50.974;4.968;2022-08-01T02:37:42;4.57;;;3.00;;
9974;SDS011;5028;50.974;4.968;2022-08-01T02:40:13;3.57;;;2.60;;
9974;SDS011;5028;50.974;4.968;2022-08-01T02:42:50;4.57;;;3.00;;
9974;SDS011;5028;50.974;4.968;2022-08-01T02:45:24;5.43;;;3.20;;
9974;SDS011;5028;50.974;4.968;2022-08-01T02:48:03;6.00;;;3.23;;
9974;SDS011;5028;50.974;4.968;2022-08-01T02:50:41;5.67;;;3.40;;
9974;SDS011;5028;50.974;4.968;2022-08-01T02:53:12;6.03;;;3.13;;
9974;SDS011;5028;50.974;4.968;2022-08-01T02:56:09;4.87;;;3.10;;
9974;SDS011;5028;50.974;4.968;2022-08-01T02:58:39;4.83;;;3.07;;
9974;SDS011;5028;50.974;4.968;2022-08-01T03:01:18;4.57;;;3.27;;
9974;SDS011;5028;50.974;4.968;2022-08-01T03:03:53;5.20;;;3.40;;
9974;SDS011;5028;50.974;4.968;2022-08-01T03:06:29;6.67;;;3.27;;
9974;SDS011;5028;50.974;4.968;2022-08-01T03:08:59;5.50;;;3.67;;
9974;SDS011;5028;50.974;4.968;2022-08-01T03:11:36;5.03;;;3.67;;
9974;SDS011;5028;50.974;4.968;2022-08-01T03:14:09;6.10;;;3.40;;
9974;SDS011;5028;50.974;4.968;2022-08-01T03:16:48;4.03;;;3.20;;
9974;SDS011;5028;50.974;4.968;2022-08-01T03:19:20;5.30;;;3.50;;
9974;SDS011;5028;50.974;4.968;2022-08-01T03:21:59;6.13;;;4.37;;
9974;SDS011;5028;50.974;4.968;2022-08-01T03:24:30;7.73;;;5.77;;
9974;SDS011;5028;50.974;4.968;2022-08-01T03:27:07;9.50;;;6.80;;
9974;SDS011;5028;50.974;4.968;2022-08-01T03:29:50;9.43;;;7.60;;
9974;SDS011;5028;50.974;4.968;2022-08-01T03:32:27;11.63;;;9.00;;
9974;SDS011;5028;50.974;4.968;2022-08-01T03:34:58;14.30;;;10.53;;
9974;SDS011;5028;50.974;4.968;2022-08-01T03:37:34;17.30;;;12.53;;
9974;SDS011;5028;50.974;4.968;2022-08-01T03:40:30;19.30;;;13.20;;
9974;SDS011;5028;50.974;4.968;2022-08-01T03:43:11;18.23;;;13.43;;
9974;SDS011;5028;50.974;4.968;2022-08-01T03:45:45;19.33;;;13.10;;
9974;SDS011;5028;50.974;4.968;2022-08-01T03:48:28;19.30;;;13.13;;
9974;SDS011;5028;50.974;4.968;2022-08-01T03:51:00;19.90;;;13.00;;
9974;SDS011;5028;50.974;4.968;2022-08-01T03:53:36;20.00;;;13.30;;
9974;SDS011;5028;50.974;4.968;2022-08-01T03:56:08;18.73;;;12.87;;
9974;SDS011;5028;50.974;4.968;2022-08-01T03:58:45;18.27;;;13.00;;
9974;SDS011;5028;50.974;4.968;2022-08-01T04:01:15;20.87;;;12.83;;
9974;SDS011;5028;50.974;4.968;2022-08-01T04:03:51;19.63;;;12.37;;
9974;SDS011;5028;50.974;4.968;2022-08-01T04:06:21;24.00;;;13.33;;
9974;SDS011;5028;50.974;4.968;2022-08-01T04:08:56;16.90;;;12.70;;
9974;SDS011;5028;50.974;4.968;2022-08-01T04:11:25;17.13;;;12.83;;
9974;SDS011;5028;50.974;4.968;2022-08-01T04:14:02;18.30;;;12.53;;
9974;SDS011;5028;50.974;4.968;2022-08-01T04:16:34;18.50;;;12.17;;
9974;SDS011;5028;50.974;4.968;2022-08-01T04:19:10;17.33;;;12.00;;
9974;SDS011;5028;50.974;4.968;2022-08-01T04:21:40;18.17;;;12.67;;
9974;SDS011;5028;50.974;4.968;2022-08-01T04:24:16;19.97;;;12.63;;
9974;SDS011;5028;50.974;4.968;2022-08-01T04:26:47;18.20;;;12.43;;
9974;SDS011;5028;50.974;4.968;2022-08-01T04:29:25;18.20;;;12.40;;
9974;SDS011;5028;50.974;4.968;2022-08-01T04:32:01;16.90;;;11.90;;
9974;SDS011;5028;50.974;4.968;2022-08-01T04:34:39;16.83;;;11.90;;
9974;SDS011;5028;50.974;4.968;2022-08-01T04:37:10;17.27;;;13.33;;
9974;SDS011;5028;50.974;4.968;2022-08-01T04:39:49;22.83;;;13.70;;
9974;SDS011;5028;50.974;4.968;2022-08-01T04:42:20;17.60;;;13.33;;
9974;SDS011;5028;50.974;4.968;2022-08-01T04:44:58;19.93;;;14.30;;
9974;SDS011;5028;50.974;4.968;2022-08-01T04:47:28;21.20;;;14.17;;
9974;SDS011;5028;50.974;4.968;2022-08-01T04:50:04;16.03;;;13.40;;
9974;SDS011;5028;50.974;4.968;2022-08-01T04:52:36;20.83;;;13.70;;
9974;SDS011;5028;50.974;4.968;2022-08-01T04:55:15;18.40;;;13.73;;
9974;SDS011;5028;50.974;4.968;2022-08-01T04:57:45;18.77;;;13.87;;
9974;SDS011;5028;50.974;4.968;2022-08-01T05:00:21;18.73;;;14.07;;
9974;SDS011;5028;50.974;4.968;2022-08-01T05:02:49;21.87;;;13.73;;
9974;SDS011;5028;50.974;4.968;2022-08-01T05:05:25;17.77;;;13.80;;
9974;SDS011;5028;50.974;4.968;2022-08-01T05:07:55;18.27;;;14.40;;
9974;SDS011;5028;50.974;4.968;2022-08-01T05:10:30;17.17;;;13.77;;
9974;SDS011;5028;50.974;4.968;2022-08-01T05:12:59;21.03;;;14.97;;
9974;SDS011;5028;50.974;4.968;2022-08-01T05:15:34;18.63;;;15.50;;
9974;SDS011;5028;50.974;4.968;2022-08-01T05:18:03;18.37;;;16.13;;
9974;SDS011;5028;50.974;4.968;2022-08-01T05:20:39;20.27;;;16.07;;
9974;SDS011;5028;50.974;4.968;2022-08-01T05:23:10;20.70;;;16.50;;
9974;SDS011;5028;50.974;4.968;2022-08-01T05:26:05;21.17;;;16.77;;
9974;SDS011;5028;50.974;4.968;2022-08-01T05:28:40;21.00;;;16.63;;
9974;SDS011;5028;50.974;4.968;2022-08-01T05:31:16;22.83;;;17.27;;
9974;SDS011;5028;50.974;4.968;2022-08-01T05:33:51;20.30;;;16.67;;
9974;SDS011;5028;50.974;4.968;2022-08-01T05:36:27;19.10;;;16.63;;
9974;SDS011;5028;50.974;4.968;2022-08-01T05:38:57;20.73;;;17.03;;
9974;SDS011;5028;50.974;4.968;2022-08-01T05:41:33;19.17;;;15.80;;
9974;SDS011;5028;50.974;4.968;2022-08-01T05:44:03;17.77;;;15.67;;
9974;SDS011;5028;50.974;4.968;2022-08-01T05:46:38;19.63;;;16.60;;
9974;SDS011;5028;50.974;4.968;2022-08-01T05:49:07;20.73;;;16.13;;
9974;SDS011;5028;50.974;4.968;2022-08-01T05:51:42;20.30;;;15.70;;
9974;SDS011;5028;50.974;4.968;2022-08-01T05:54:12;15.43;;;13.83;;
9974;SDS011;5028;50.974;4.968;2022-08-01T05:56:47;16.73;;;14.93;;
9974;SDS011;5028;50.974;4.968;2022-08-01T05:59:16;17.87;;;13.83;;
9974;SDS011;5028;50.974;4.968;2022-08-01T06:01:51;16.20;;;13.33;;
9974;SDS011;5028;50.974;4.968;2022-08-01T06:04:19;15.20;;;13.50;;
9974;SDS011;5028;50.974;4.968;2022-08-01T06:06:55;16.23;;;13.70;;
9974;SDS011;5028;50.974;4.968;2022-08-01T06:09:25;18.90;;;13.27;;
9974;SDS011;5028;50.974;4.968;2022-08-01T06:12:00;16.77;;;14.73;;
9974;SDS011;5028;50.974;4.968;2022-08-01T06:14:29;17.87;;;13.27;;
9974;SDS011;5028;50.974;4.968;2022-08-01T06:17:05;16.57;;;14.47;;
9974;SDS011;5028;50.974;4.968;2022-08-01T06:19:34;16.43;;;14.03;;
9974;SDS011;5028;50.974;4.968;2022-08-01T06:22:09;13.13;;;11.60;;
9974;SDS011;5028;50.974;4.968;2022-08-01T06:24:39;17.60;;;14.60;;
9974;SDS011;5028;50.974;4.968;2022-08-01T06:27:20;15.93;;;13.10;;
9974;SDS011;5028;50.974;4.968;2022-08-01T06:30:09;13.90;;;11.47;;
9974;SDS011;5028;50.974;4.968;2022-08-01T06:32:44;17.47;;;11.80;;
9974;SDS011;5028;50.974;4.968;2022-08-01T06:35:20;15.83;;;11.80;;
9974;SDS011;5028;50.974;4.968;2022-08-01T06:37:48;15.10;;;11.70;;
9974;SDS011;5028;50.974;4.968;2022-08-01T06:40:25;13.43;;;11.97;;
9974;SDS011;5028;50.974;4.968;2022-08-01T06:42:54;11.80;;;10.00;;
9974;SDS011;5028;50.974;4.968;2022-08-01T06:45:29;10.67;;;9.43;;
9974;SDS011;5028;50.974;4.968;2022-08-01T06:47:57;10.93;;;9.37;;
9974;SDS011;5028;50.974;4.968;2022-08-01T06:50:33;10.70;;;9.33;;
9974;SDS011;5028;50.974;4.968;2022-08-01T06:53:03;11.83;;;9.43;;
9974;SDS011;5028;50.974;4.968;2022-08-01T06:55:39;11.87;;;9.50;;
9974;SDS011;5028;50.974;4.968;2022-08-01T06:58:08;12.63;;;10.13;;
9974;SDS011;5028;50.974;4.968;2022-08-01T07:00:43;9.80;;;8.57;;
9974;SDS011;5028;50.974;4.968;2022-08-01T07:03:12;9.83;;;8.63;;
9974;SDS011;5028;50.974;4.968;2022-08-01T07:05:47;10.20;;;8.63;;
9974;SDS011;5028;50.974;4.968;2022-08-01T07:08:16;8.70;;;7.83;;
9974;SDS011;5028;50.974;4.968;2022-08-01T07:10:52;8.27;;;7.03;;
9974;SDS011;5028;50.974;4.968;2022-08-01T07:13:22;10.33;;;7.23;;
9974;SDS011;5028;50.974;4.968;2022-08-01T07:16:09;8.97;;;7.47;;
9974;SDS011;5028;50.974;4.968;2022-08-01T07:18:38;7.33;;;6.57;;
9974;SDS011;5028;50.974;4.968;2022-08-01T07:21:13;11.50;;;6.47;;
9974;SDS011;5028;50.974;4.968;2022-08-01T07:24:01;7.70;;;5.90;;
9974;SDS011;5028;50.974;4.968;2022-08-01T07:26:41;8.97;;;5.83;;
9974;SDS011;5028;50.974;4.968;2022-08-01T07:29:19;6.53;;;5.60;;
9974;SDS011;5028;50.974;4.968;2022-08-01T07:32:01;8.53;;;5.83;;
9974;SDS011;5028;50.974;4.968;2022-08-01T07:34:30;7.60;;;4.87;;
9974;SDS011;5028;50.974;4.968;2022-08-01T07:37:05;7.03;;;5.10;;
9974;SDS011;5028;50.974;4.968;2022-08-01T07:39:33;5.57;;;4.83;;
9974;SDS011;5028;50.974;4.968;2022-08-01T07:42:10;5.90;;;5.10;;
9974;SDS011;5028;50.974;4.968;2022-08-01T07:44:39;6.87;;;4.73;;
9974;SDS011;5028;50.974;4.968;2022-08-01T07:47:14;6.80;;;5.10;;
9974;SDS011;5028;50.974;4.968;2022-08-01T07:49:43;8.07;;;6.30;;
9974;SDS011;5028;50.974;4.968;2022-08-01T07:52:18;7.13;;;5.80;;
9974;SDS011;5028;50.974;4.968;2022-08-01T07:54:47;7.20;;;5.50;;
9974;SDS011;5028;50.974;4.968;2022-08-01T07:57:24;6.37;;;4.90;;
9974;SDS011;5028;50.974;4.968;2022-08-01T07:59:52;6.47;;;4.77;;
9974;SDS011;5028;50.974;4.968;2022-08-01T08:02:27;6.97;;;5.27;;
9974;SDS011;5028;50.974;4.968;2022-08-01T08:04:56;5.40;;;4.87;;
9974;SDS011;5028;50.974;4.968;2022-08-01T08:07:32;7.03;;;4.77;;
9974;SDS011;5028;50.974;4.968;2022-08-01T08:10:00;5.57;;;4.00;;
9974;SDS011;5028;50.974;4.968;2022-08-01T08:12:38;4.83;;;3.47;;
9974;SDS011;5028;50.974;4.968;2022-08-01T08:15:08;3.33;;;2.47;;
9974;SDS011;5028;50.974;4.968;2022-08-01T08:17:44;3.07;;;2.10;;
9974;SDS011;5028;50.974;4.968;2022-08-01T08:20:20;3.03;;;2.27;;
9974;SDS011;5028;50.974;4.968;2022-08-01T08:22:57;3.63;;;2.60;;
9974;SDS011;5028;50.974;4.968;2022-08-01T08:25:26;3.20;;;2.20;;
9974;SDS011;5028;50.974;4.968;2022-08-01T08:28:09;3.83;;;1.90;;
9974;SDS011;5028;50.974;4.968;2022-08-01T08:31:00;2.20;;;1.60;;
9974;SDS011;5028;50.974;4.968;2022-08-01T08:33:55;2.40;;;1.77;;
9974;SDS011;5028;50.974;4.968;2022-08-01T08:36:24;1.47;;;1.37;;
9974;SDS011;5028;50.974;4.968;2022-08-01T08:38:59;1.93;;;1.50;;
9974;SDS011;5028;50.974;4.968;2022-08-01T08:41:29;2.77;;;1.60;;
9974;SDS011;5028;50.974;4.968;2022-08-01T08:44:06;1.60;;;1.47;;
9974;SDS011;5028;50.974;4.968;2022-08-01T08:46:38;2.43;;;2.20;;
9974;SDS011;5028;50.974;4.968;2022-08-01T08:49:16;2.30;;;2.10;;
9974;SDS011;5028;50.974;4.968;2022-08-01T08:51:47;2.80;;;2.60;;
9974;SDS011;5028;50.974;4.968;2022-08-01T08:54:23;2.67;;;2.47;;
9974;SDS011;5028;50.974;4.968;2022-08-01T08:56:57;2.13;;;1.93;;
9974;SDS011;5028;50.974;4.968;2022-08-01T08:59:35;4.47;;;2.50;;
9974;SDS011;5028;50.974;4.968;2022-08-01T09:02:04;2.00;;;1.80;;
9974;SDS011;5028;50.974;4.968;2022-08-01T09:04:40;1.80;;;1.70;;
9974;SDS011;5028;50.974;4.968;2022-08-01T09:07:09;1.50;;;1.40;;
9974;SDS011;5028;50.974;4.968;2022-08-01T09:09:46;1.20;;;1.20;;
9974;SDS011;5028;50.974;4.968;2022-08-01T09:12:20;1.37;;;1.27;;
9974;SDS011;5028;50.974;4.968;2022-08-01T09:14:56;1.97;;;1.40;;
9974;SDS011;5028;50.974;4.968;2022-08-01T09:17:25;1.60;;;1.50;;
9974;SDS011;5028;50.974;4.968;2022-08-01T09:20:00;1.50;;;1.10;;
9974;SDS011;5028;50.974;4.968;2022-08-01T09:22:30;0.97;;;0.90;;
9974;SDS011;5028;50.974;4.968;2022-08-01T09:25:13;3.07;;;1.00;;
9974;SDS011;5028;50.974;4.968;2022-08-01T09:27:41;1.10;;;0.90;;
9974;SDS011;5028;50.974;4.968;2022-08-01T09:30:18;1.50;;;1.00;;
9974;SDS011;5028;50.974;4.968;2022-08-01T09:32:54;1.27;;;0.93;;
9974;SDS011;5028;50.974;4.968;2022-08-01T09:35:43;0.90;;;0.90;;
9974;SDS011;5028;50.974;4.968;2022-08-01T09:38:21;0.90;;;0.90;;
9974;SDS011;5028;50.974;4.968;2022-08-01T09:41:00;3.07;;;1.10;;
9974;SDS011;5028;50.974;4.968;2022-08-01T09:43:29;3.07;;;1.20;;
9974;SDS011;5028;50.974;4.968;2022-08-01T09:46:08;1.10;;;1.00;;
9974;SDS011;5028;50.974;4.968;2022-08-01T09:48:39;1.23;;;0.97;;
9974;SDS011;5028;50.974;4.968;2022-08-01T09:51:36;0.90;;;0.90;;
9974;SDS011;5028;50.974;4.968;2022-08-01T09:54:29;1.10;;;0.80;;
9974;SDS011;5028;50.974;4.968;2022-08-01T09:57:07;1.40;;;1.00;;
9974;SDS011;5028;50.974;4.968;2022-08-01T09:59:37;1.93;;;1.10;;
9974;SDS011;5028;50.974;4.968;2022-08-01T10:02:28;6.03;;;1.57;;
9974;SDS011;5028;50.974;4.968;2022-08-01T10:04:59;2.00;;;1.10;;
9974;SDS011;5028;50.974;4.968;2022-08-01T10:07:56;4.13;;;1.10;;
9974;SDS011;5028;50.974;4.968;2022-08-01T10:10:26;9.50;;;2.00;;
9974;SDS011;5028;50.974;4.968;2022-08-01T10:13:02;1.40;;;1.00;;
9974;SDS011;5028;50.974;4.968;2022-08-01T10:15:35;2.00;;;1.10;;
9974;SDS011;5028;50.974;4.968;2022-08-01T10:18:14;1.00;;;0.90;;
9974;SDS011;5028;50.974;4.968;2022-08-01T10:20:52;1.53;;;1.27;;
9974;SDS011;5028;50.974;4.968;2022-08-01T10:23:34;1.20;;;0.90;;
9974;SDS011;5028;50.974;4.968;2022-08-01T10:26:06;1.07;;;0.77;;
9974;SDS011;5028;50.974;4.968;2022-08-01T10:28:50;1.00;;;0.90;;
9974;SDS011;5028;50.974;4.968;2022-08-01T10:31:53;0.80;;;0.80;;
9974;SDS011;5028;50.974;4.968;2022-08-01T10:34:32;2.03;;;0.80;;
9974;SDS011;5028;50.974;4.968;2022-08-01T10:37:03;0.90;;;0.80;;
9974;SDS011;5028;50.974;4.968;2022-08-01T10:39:39;1.95;;;0.80;;
9974;SDS011;5028;50.974;4.968;2022-08-01T10:42:09;1.00;;;0.93;;
9974;SDS011;5028;50.974;4.968;2022-08-01T10:44:45;0.80;;;0.80;;
9974;SDS011;5028;50.974;4.968;2022-08-01T10:47:15;1.10;;;0.77;;
9974;SDS011;5028;50.974;4.968;2022-08-01T10:50:15;0.80;;;0.80;;
9974;SDS011;5028;50.974;4.968;2022-08-01T10:53:04;0.60;;;0.60;;
9974;SDS011;5028;50.974;4.968;2022-08-01T10:55:59;2.08;;;0.70;;
9974;SDS011;5028;50.974;4.968;2022-08-01T10:58:29;1.67;;;0.65;;
9974;SDS011;5028;50.974;4.968;2022-08-01T11:01:20;0.85;;;0.80;;
9974;SDS011;5028;50.974;4.968;2022-08-01T11:03:58;0.70;;;0.70;;
9974;SDS011;5028;50.974;4.968;2022-08-01T11:06:46;1.15;;;0.70;;
9974;SDS011;5028;50.974;4.968;2022-08-01T11:09:29;1.27;;;1.00;;
9974;SDS011;5028;50.974;4.968;2022-08-01T11:12:07;0.80;;;0.70;;
9974;SDS011;5028;50.974;4.968;2022-08-01T11:17:59;0.57;;;0.57;;
9974;SDS011;5028;50.974;4.968;2022-08-01T11:20:30;1.38;;;0.70;;
9974;SDS011;5028;50.974;4.968;2022-08-01T11:23:19;1.27;;;0.80;;
9974;SDS011;5028;50.974;4.968;2022-08-01T11:26:08;1.33;;;0.80;;
9974;SDS011;5028;50.974;4.968;2022-08-01T11:29:11;2.40;;;0.95;;
9974;SDS011;5028;50.974;4.968;2022-08-01T11:31:55;4.18;;;1.00;;
9974;SDS011;5028;50.974;4.968;2022-08-01T11:34:55;0.93;;;0.80;;
9974;SDS011;5028;50.974;4.968;2022-08-01T11:37:32;2.67;;;1.10;;
9974;SDS011;5028;50.974;4.968;2022-08-01T11:40:17;2.13;;;0.80;;
9974;SDS011;5028;50.974;4.968;2022-08-01T11:45:46;1.88;;;0.90;;
9974;SDS011;5028;50.974;4.968;2022-08-01T11:48:25;4.45;;;1.02;;
9974;SDS011;5028;50.974;4.968;2022-08-01T11:50:56;1.00;;;0.80;;
9974;SDS011;5028;50.974;4.968;2022-08-01T11:53:32;1.00;;;0.90;;
9974;SDS011;5028;50.974;4.968;2022-08-01T11:56:06;4.20;;;1.10;;
9974;SDS011;5028;50.974;4.968;2022-08-01T11:58:42;1.40;;;1.00;;
9974;SDS011;5028;50.974;4.968;2022-08-01T12:01:11;2.58;;;1.00;;
9974;SDS011;5028;50.974;4.968;2022-08-01T12:03:55;2.47;;;1.15;;
9974;SDS011;5028;50.974;4.968;2022-08-01T12:06:26;2.25;;;1.20;;
9974;SDS011;5028;50.974;4.968;2022-08-01T12:09:19;4.70;;;1.10;;
9974;SDS011;5028;50.974;4.968;2022-08-01T12:11:49;2.00;;;1.20;;
9974;SDS011;5028;50.974;4.968;2022-08-01T12:14:24;2.42;;;1.30;;
9974;SDS011;5028;50.974;4.968;2022-08-01T12:16:53;2.15;;;1.15;;
9974;SDS011;5028;50.974;4.968;2022-08-01T12:19:30;2.13;;;1.20;;
9974;SDS011;5028;50.974;4.968;2022-08-01T12:22:06;4.18;;;1.27;;
9974;SDS011;5028;50.974;4.968;2022-08-01T12:24:43;1.63;;;1.10;;
9974;SDS011;5028;50.974;4.968;2022-08-01T12:27:12;3.13;;;1.38;;
9974;SDS011;5028;50.974;4.968;2022-08-01T12:30:06;2.03;;;1.35;;
9974;SDS011;5028;50.974;4.968;2022-08-01T12:32:35;3.17;;;1.20;;
9974;SDS011;5028;50.974;4.968;2022-08-01T12:35:13;4.18;;;1.60;;
9974;SDS011;5028;50.974;4.968;2022-08-01T12:37:44;2.78;;;1.40;;
9974;SDS011;5028;50.974;4.968;2022-08-01T12:40:21;3.40;;;1.20;;
9974;SDS011;5028;50.974;4.968;2022-08-01T12:42:51;3.47;;;1.50;;
9974;SDS011;5028;50.974;4.968;2022-08-01T12:45:29;2.85;;;1.35;;
9974;SDS011;5028;50.974;4.968;2022-08-01T12:48:00;1.88;;;1.08;;
9974;SDS011;5028;50.974;4.968;2022-08-01T12:50:41;2.80;;;1.10;;
9974;SDS011;5028;50.974;4.968;2022-08-01T12:53:11;2.13;;;1.25;;
9974;SDS011;5028;50.974;4.968;2022-08-01T12:55:48;4.40;;;1.20;;
9974;SDS011;5028;50.974;4.968;2022-08-01T12:58:29;1.98;;;1.00;;
9974;SDS011;5028;50.974;4.968;2022-08-01T13:01:06;3.70;;;1.35;;
9974;SDS011;5028;50.974;4.968;2022-08-01T13:03:36;2.58;;;1.10;;
9974;SDS011;5028;50.974;4.968;2022-08-01T13:06:13;2.10;;;1.30;;
9974;SDS011;5028;50.974;4.968;2022-08-01T13:08:44;1.98;;;1.05;;
9974;SDS011;5028;50.974;4.968;2022-08-01T13:11:19;2.38;;;1.30;;
9974;SDS011;5028;50.974;4.968;2022-08-01T13:13:48;2.08;;;1.40;;
9974;SDS011;5028;50.974;4.968;2022-08-01T13:16:26;2.95;;;1.45;;
9974;SDS011;5028;50.974;4.968;2022-08-01T13:19:14;2.60;;;1.40;;
9974;SDS011;5028;50.974;4.968;2022-08-01T13:21:54;3.97;;;1.20;;
9974;SDS011;5028;50.974;4.968;2022-08-01T13:24:25;3.95;;;1.20;;
9974;SDS011;5028;50.974;4.968;2022-08-01T13:27:01;2.65;;;1.40;;
9974;SDS011;5028;50.974;4.968;2022-08-01T13:29:32;2.17;;;1.30;;
9974;SDS011;5028;50.974;4.968;2022-08-01T13:32:21;3.83;;;1.50;;
9974;SDS011;5028;50.974;4.968;2022-08-01T13:35:00;2.53;;;1.13;;
9974;SDS011;5028;50.974;4.968;2022-08-01T13:37:37;4.82;;;1.60;;
9974;SDS011;5028;50.974;4.968;2022-08-01T13:40:07;3.67;;;1.30;;
9974;SDS011;5028;50.974;4.968;2022-08-01T13:42:43;4.78;;;1.23;;
9974;SDS011;5028;50.974;4.968;2022-08-01T13:45:12;2.17;;;1.23;;
9974;SDS011;5028;50.974;4.968;2022-08-01T13:47:48;2.53;;;1.30;;
9974;SDS011;5028;50.974;4.968;2022-08-01T13:50:36;2.00;;;1.10;;
9974;SDS011;5028;50.974;4.968;2022-08-01T13:53:33;2.72;;;1.20;;
9974;SDS011;5028;50.974;4.968;2022-08-01T13:56:02;1.33;;;1.10;;
9974;SDS011;5028;50.974;4.968;2022-08-01T13:58:37;3.22;;;1.20;;
9974;SDS011;5028;50.974;4.968;2022-08-01T14:01:06;2.08;;;1.38;;
9974;SDS011;5028;50.974;4.968;2022-08-01T14:03:41;2.28;;;1.10;;
9974;SDS011;5028;50.974;4.968;2022-08-01T14:06:10;2.05;;;1.20;;
9974;SDS011;5028;50.974;4.968;2022-08-01T14:08:47;2.38;;;1.20;;
9974;SDS011;5028;50.974;4.968;2022-08-01T14:11:16;3.05;;;1.27;;
9974;SDS011;5028;50.974;4.968;2022-08-01T14:13:55;4.38;;;1.30;;
9974;SDS011;5028;50.974;4.968;2022-08-01T14:16:24;2.75;;;1.05;;
9974;SDS011;5028;50.974;4.968;2022-08-01T14:18:59;4.43;;;1.00;;
9974;SDS011;5028;50.974;4.968;2022-08-01T14:21:29;2.00;;;0.90;;
9974;SDS011;5028;50.974;4.968;2022-08-01T14:24:06;3.70;;;1.10;;
9974;SDS011;5028;50.974;4.968;2022-08-01T14:26:35;1.50;;;0.82;;
9974;SDS011;5028;50.974;4.968;2022-08-01T14:29:10;1.63;;;0.90;;
9974;SDS011;5028;50.974;4.968;2022-08-01T14:31:51;2.47;;;0.93;;
9974;SDS011;5028;50.974;4.968;2022-08-01T14:34:26;1.63;;;0.95;;
9974;SDS011;5028;50.974;4.968;2022-08-01T14:36:55;1.52;;;1.00;;
9974;SDS011;5028;50.974;4.968;2022-08-01T14:39:35;2.08;;;1.10;;
9974;SDS011;5028;50.974;4.968;2022-08-01T14:42:04;1.40;;;1.00;;
9974;SDS011;5028;50.974;4.968;2022-08-01T14:44:38;3.45;;;1.10;;
9974;SDS011;5028;50.974;4.968;2022-08-01T14:47:14;3.10;;;1.20;;
9974;SDS011;5028;50.974;4.968;2022-08-01T14:49:49;1.65;;;1.10;;
9974;SDS011;5028;50.974;4.968;2022-08-01T14:52:18;2.92;;;1.10;;
9974;SDS011;5028;50.974;4.968;2022-08-01T14:54:55;3.55;;;1.20;;
9974;SDS011;5028;50.974;4.968;2022-08-01T14:57:23;1.88;;;1.05;;
9974;SDS011;5028;50.974;4.968;2022-08-01T14:59:58;3.10;;;1.10;;
9974;SDS011;5028;50.974;4.968;2022-08-01T15:02:27;2.92;;;1.00;;
9974;SDS011;5028;50.974;4.968;2022-08-01T15:05:01;2.83;;;1.08;;
9974;SDS011;5028;50.974;4.968;2022-08-01T15:07:30;3.35;;;1.23;;
9974;SDS011;5028;50.974;4.968;2022-08-01T15:10:18;4.68;;;1.23;;
9974;SDS011;5028;50.974;4.968;2022-08-01T15:12:47;4.07;;;1.17;;
9974;SDS011;5028;50.974;4.968;2022-08-01T15:15:22;2.63;;;1.10;;
9974;SDS011;5028;50.974;4.968;2022-08-01T15:17:51;1.83;;;1.20;;
9974;SDS011;5028;50.974;4.968;2022-08-01T15:20:26;3.53;;;1.20;;
9974;SDS011;5028;50.974;4.968;2022-08-01T15:22:56;2.00;;;1.00;;
9974;SDS011;5028;50.974;4.968;2022-08-01T15:25:32;4.00;;;1.20;;
9974;SDS011;5028;50.974;4.968;2022-08-01T15:28:07;2.65;;;1.20;;
9974;SDS011;5028;50.974;4.968;2022-08-01T15:30:43;2.97;;;1.20;;
9974;SDS011;5028;50.974;4.968;2022-08-01T15:33:25;2.17;;;1.00;;
9974;SDS011;5028;50.974;4.968;2022-08-01T15:36:00;1.73;;;1.02;;
9974;SDS011;5028;50.974;4.968;2022-08-01T15:38:29;1.73;;;0.80;;
9974;SDS011;5028;50.974;4.968;2022-08-01T15:41:06;2.28;;;1.10;;
9974;SDS011;5028;50.974;4.968;2022-08-01T15:43:34;2.80;;;1.00;;
9974;SDS011;5028;50.974;4.968;2022-08-01T15:46:10;2.53;;;1.05;;
9974;SDS011;5028;50.974;4.968;2022-08-01T15:48:39;2.47;;;1.10;;
9974;SDS011;5028;50.974;4.968;2022-08-01T15:51:14;1.35;;;1.00;;
9974;SDS011;5028;50.974;4.968;2022-08-01T15:53:42;2.05;;;1.00;;
9974;SDS011;5028;50.974;4.968;2022-08-01T15:56:20;2.03;;;1.00;;
9974;SDS011;5028;50.974;4.968;2022-08-01T15:58:48;3.38;;;1.00;;
9974;SDS011;5028;50.974;4.968;2022-08-01T16:01:24;2.65;;;1.40;;
9974;SDS011;5028;50.974;4.968;2022-08-01T16:03:53;3.85;;;1.15;;
9974;SDS011;5028;50.974;4.968;2022-08-01T16:06:28;2.28;;;1.02;;
9974;SDS011;5028;50.974;4.968;2022-08-01T16:08:57;3.65;;;1.20;;
9974;SDS011;5028;50.974;4.968;2022-08-01T16:11:34;2.90;;;1.00;;